createdAt,value
2018-06-23T00:00:59.221Z,15.42
2018-06-23T00:01:59.190Z,15.36
2018-06-23T00:02:59.150Z,15.42
2018-06-23T00:03:59.135Z,15.25
2018-06-23T00:04:59.098Z,15.31
2018-06-23T00:05:59.077Z,15.37
2018-06-23T00:06:59.055Z,15.36
2018-06-23T00:07:59.026Z,15.25
2018-06-23T00:08:58.995Z,15.35
2018-06-23T00:09:58.975Z,15.40
2018-06-23T00:10:58.952Z,15.35
2018-06-23T00:11:58.925Z,15.33
2018-06-23T00:12:58.895Z,15.35
2018-06-23T00:13:58.871Z,15.37
2018-06-23T00:14:58.844Z,15.33
2018-06-23T00:15:58.822Z,15.39
2018-06-23T00:16:58.791Z,15.43
2018-06-23T00:17:58.767Z,15.51
2018-06-23T00:18:59.487Z,15.47
2018-06-23T00:19:59.898Z,15.51
2018-06-23T00:20:59.554Z,15.52
2018-06-23T00:21:59.271Z,15.54
2018-06-23T00:22:59.110Z,15.47
2018-06-23T00:23:59.489Z,15.46
2018-06-23T00:24:59.522Z,15.46
2018-06-23T00:25:59.531Z,15.49
2018-06-23T00:26:59.491Z,15.44
2018-06-23T00:27:59.302Z,15.29
2018-06-23T00:28:58.988Z,15.25
2018-06-23T00:29:59.462Z,15.25
2018-06-23T00:30:59.026Z,15.21
2018-06-23T00:31:59.028Z,15.15
2018-06-23T00:32:59.343Z,15.17
2018-06-23T00:33:59.320Z,15.09
2018-06-23T00:34:59.015Z,15.03
2018-06-23T00:35:59.028Z,15.00
2018-06-23T00:37:00.030Z,14.96
2018-06-23T00:37:58.899Z,14.96
2018-06-23T00:38:58.216Z,14.89
2018-06-23T00:39:58.197Z,14.84
2018-06-23T00:40:58.175Z,14.79
2018-06-23T00:41:58.887Z,14.91
2018-06-23T00:42:58.115Z,14.86
2018-06-23T00:43:58.107Z,14.79
2018-06-23T00:44:58.066Z,14.78
2018-06-23T00:45:58.041Z,14.82
2018-06-23T00:46:58.021Z,14.69
2018-06-23T00:47:57.984Z,14.84
2018-06-23T00:48:57.959Z,14.73
2018-06-23T00:49:57.933Z,14.81
2018-06-23T00:50:57.928Z,14.82
2018-06-23T00:51:57.885Z,14.82
2018-06-23T00:52:57.851Z,14.81
2018-06-23T00:53:58.619Z,14.85
2018-06-23T00:54:57.806Z,14.82
2018-06-23T00:55:57.772Z,14.66
2018-06-23T00:56:57.749Z,14.73
2018-06-23T00:57:57.728Z,14.73
2018-06-23T00:58:57.693Z,14.79
2018-06-23T00:59:57.677Z,14.72
2018-06-23T01:00:57.639Z,14.84
2018-06-23T01:01:57.620Z,14.77
2018-06-23T01:02:57.593Z,14.77
2018-06-23T01:03:57.568Z,14.72
2018-06-23T01:04:57.538Z,14.69
2018-06-23T01:05:57.520Z,14.73
2018-06-23T01:06:57.486Z,14.68
2018-06-23T01:07:57.461Z,14.72
2018-06-23T01:08:57.438Z,14.69
2018-06-23T01:09:57.408Z,14.73
2018-06-23T01:10:57.386Z,14.70
2018-06-23T01:11:57.358Z,14.69
2018-06-23T01:12:57.325Z,14.62
2018-06-23T01:13:57.305Z,14.60
2018-06-23T01:14:57.292Z,14.60
2018-06-23T01:15:57.254Z,14.58
2018-06-23T01:16:57.224Z,14.58
2018-06-23T01:17:57.212Z,14.53
2018-06-23T01:18:57.176Z,14.44
2018-06-23T01:19:57.153Z,14.55
2018-06-23T01:20:57.118Z,14.53
2018-06-23T01:21:57.098Z,14.53
2018-06-23T01:22:57.069Z,14.53
2018-06-23T01:23:57.041Z,14.50
2018-06-23T01:24:57.022Z,14.51
2018-06-23T01:25:56.988Z,14.55
2018-06-23T01:26:56.973Z,14.54
2018-06-23T01:27:56.957Z,14.54
2018-06-23T01:28:56.911Z,14.54
2018-06-23T01:29:56.889Z,14.53
2018-06-23T01:30:56.864Z,14.50
2018-06-23T01:31:56.840Z,14.44
2018-06-23T01:32:56.815Z,14.36
2018-06-23T01:33:56.778Z,14.37
2018-06-23T01:34:56.760Z,14.44
2018-06-23T01:35:56.728Z,14.36
2018-06-23T01:36:56.708Z,14.37
2018-06-23T01:37:56.685Z,14.41
2018-06-23T01:38:57.534Z,14.36
2018-06-23T01:39:56.945Z,14.32
2018-06-23T01:40:57.535Z,14.41
2018-06-23T01:41:57.543Z,14.36
2018-06-23T01:42:57.140Z,14.37
2018-06-23T01:43:57.043Z,14.43
2018-06-23T01:44:57.043Z,14.45
2018-06-23T01:45:56.845Z,14.45
2018-06-23T01:46:57.002Z,14.43
2018-06-23T01:47:57.036Z,14.40
2018-06-23T01:48:56.394Z,14.35
2018-06-23T01:49:56.362Z,14.35
2018-06-23T01:50:56.338Z,14.40
2018-06-23T01:51:56.317Z,14.37
2018-06-23T01:52:56.283Z,14.37
2018-06-23T01:53:56.262Z,14.35
2018-06-23T01:54:56.256Z,14.35
2018-06-23T01:55:56.206Z,14.35
2018-06-23T01:56:56.185Z,14.25
2018-06-23T01:57:56.156Z,14.26
2018-06-23T01:58:56.183Z,14.35
2018-06-23T01:59:56.104Z,14.23
2018-06-23T02:00:56.074Z,14.22
2018-06-23T02:01:56.054Z,14.29
2018-06-23T02:02:56.020Z,14.26
2018-06-23T02:03:56.003Z,14.26
2018-06-23T02:04:55.972Z,14.28
2018-06-23T02:05:55.948Z,14.26
2018-06-23T02:06:55.917Z,14.26
2018-06-23T02:07:55.896Z,14.22
2018-06-23T02:08:55.870Z,14.18
2018-06-23T02:09:55.842Z,14.12
2018-06-23T02:10:55.816Z,14.22
2018-06-23T02:11:55.787Z,14.23
2018-06-23T02:12:55.762Z,14.29
2018-06-23T02:13:55.742Z,14.25
2018-06-23T02:14:55.704Z,14.25
2018-06-23T02:16:55.661Z,14.17
2018-06-23T02:17:55.627Z,14.11
2018-06-23T02:18:55.621Z,14.25
2018-06-23T02:19:55.574Z,14.22
2018-06-23T02:20:55.557Z,14.26
2018-06-23T02:21:55.529Z,14.32
2018-06-23T02:22:55.494Z,14.29
2018-06-23T02:23:55.473Z,14.33
2018-06-23T02:24:55.448Z,14.32
2018-06-23T02:25:55.419Z,14.30
2018-06-23T02:26:55.400Z,14.30
2018-06-23T02:27:55.370Z,14.36
2018-06-23T02:28:55.340Z,14.33
2018-06-23T02:29:55.313Z,14.26
2018-06-23T02:30:55.296Z,14.26
2018-06-23T02:31:55.259Z,14.25
2018-06-23T02:32:55.239Z,14.28
2018-06-23T02:33:55.216Z,14.14
2018-06-23T02:34:55.186Z,14.18
2018-06-23T02:35:55.165Z,14.07
2018-06-23T02:36:55.130Z,14.22
2018-06-23T02:37:55.103Z,14.20
2018-06-23T02:38:55.539Z,14.32
2018-06-23T02:39:55.423Z,14.20
2018-06-23T02:40:55.026Z,14.33
2018-06-23T02:41:55.006Z,14.32
2018-06-23T02:42:54.973Z,14.35
2018-06-23T02:43:54.947Z,14.35
2018-06-23T02:44:54.932Z,14.22
2018-06-23T02:45:54.901Z,14.29
2018-06-23T02:46:54.866Z,14.23
2018-06-23T02:47:54.845Z,14.20
2018-06-23T02:48:54.819Z,14.11
2018-06-23T02:49:54.788Z,14.23
2018-06-23T02:50:54.771Z,14.18
2018-06-23T02:51:54.741Z,14.11
2018-06-23T02:52:54.712Z,14.15
2018-06-23T02:53:54.686Z,14.15
2018-06-23T02:54:54.662Z,14.14
2018-06-23T02:55:54.634Z,14.15
2018-06-23T02:56:54.610Z,14.14
2018-06-23T02:57:54.585Z,14.14
2018-06-23T02:58:54.572Z,14.12
2018-06-23T02:59:54.539Z,14.15
2018-06-23T03:00:54.553Z,14.11
2018-06-23T03:01:54.493Z,14.17
2018-06-23T03:02:54.453Z,14.10
2018-06-23T03:03:54.422Z,14.00
2018-06-23T03:04:54.452Z,13.99
2018-06-23T03:05:54.373Z,14.03
2018-06-23T03:06:54.350Z,13.96
2018-06-23T03:07:54.336Z,13.99
2018-06-23T03:08:55.054Z,13.90
2018-06-23T03:09:55.051Z,13.96
2018-06-23T03:10:55.058Z,13.99
2018-06-23T03:11:55.058Z,13.95
2018-06-23T03:12:55.102Z,13.97
2018-06-23T03:13:55.059Z,13.99
2018-06-23T03:14:55.052Z,13.97
2018-06-23T03:15:55.022Z,14.03
2018-06-23T03:16:55.016Z,13.90
2018-06-23T03:17:55.142Z,14.05
2018-06-23T03:18:54.552Z,14.04
2018-06-23T03:19:54.556Z,14.04
2018-06-23T03:20:54.522Z,14.05
2018-06-23T03:21:54.219Z,14.11
2018-06-23T03:22:54.556Z,14.11
2018-06-23T03:23:55.547Z,14.18
2018-06-23T03:24:55.436Z,14.17
2018-06-23T03:25:54.561Z,14.12
2018-06-23T03:26:53.820Z,14.14
2018-06-23T03:27:53.801Z,14.20
2018-06-23T03:28:53.766Z,14.30
2018-06-23T03:29:53.737Z,14.28
2018-06-23T03:30:53.723Z,14.29
2018-06-23T03:31:53.687Z,14.20
2018-06-23T03:32:53.668Z,14.26
2018-06-23T03:33:53.633Z,14.25
2018-06-23T03:34:53.615Z,14.15
2018-06-23T03:35:53.582Z,14.20
2018-06-23T03:36:53.556Z,14.11
2018-06-23T03:37:53.536Z,14.15
2018-06-23T03:38:53.994Z,14.10
2018-06-23T03:39:54.063Z,14.00
2018-06-23T03:40:54.059Z,14.28
2018-06-23T03:41:54.061Z,14.30
2018-06-23T03:42:53.964Z,14.33
2018-06-23T03:43:53.391Z,14.32
2018-06-23T03:44:53.354Z,14.32
2018-06-23T03:45:53.322Z,14.26
2018-06-23T03:46:53.300Z,14.26
2018-06-23T03:47:53.281Z,14.25
2018-06-23T03:48:53.240Z,13.99
2018-06-23T03:49:53.225Z,13.90
2018-06-23T03:50:53.195Z,13.86
2018-06-23T03:51:53.171Z,13.83
2018-06-23T03:52:53.144Z,13.90
2018-06-23T03:53:53.111Z,13.89
2018-06-23T03:54:53.843Z,13.95
2018-06-23T03:55:53.064Z,14.03
2018-06-23T03:56:53.033Z,13.95
2018-06-23T03:57:53.012Z,13.89
2018-06-23T03:58:52.980Z,13.87
2018-06-23T03:59:52.956Z,13.81
2018-06-23T04:00:52.951Z,13.75
2018-06-23T04:01:52.902Z,13.74
2018-06-23T04:02:52.880Z,13.72
2018-06-23T04:03:52.852Z,13.75
2018-06-23T04:04:52.823Z,13.71
2018-06-23T04:05:52.801Z,13.62
2018-06-23T04:06:52.771Z,13.59
2018-06-23T04:07:52.743Z,13.65
2018-06-23T04:08:52.723Z,13.65
2018-06-23T04:09:52.690Z,13.67
2018-06-23T04:10:52.669Z,13.67
2018-06-23T04:11:52.645Z,13.56
2018-06-23T04:12:52.610Z,13.57
2018-06-23T04:13:52.596Z,13.57
2018-06-23T04:14:52.565Z,13.63
2018-06-23T04:15:52.543Z,13.72
2018-06-23T04:16:52.569Z,13.75
2018-06-23T04:17:52.486Z,13.75
2018-06-23T04:18:52.456Z,13.93
2018-06-23T04:19:52.426Z,13.81
2018-06-23T04:20:52.410Z,13.79
2018-06-23T04:21:52.375Z,13.77
2018-06-23T04:22:52.356Z,13.75
2018-06-23T04:23:52.327Z,13.74
2018-06-23T04:24:52.324Z,13.74
2018-06-23T04:25:52.279Z,13.75
2018-06-23T04:26:52.250Z,13.75
2018-06-23T04:27:52.229Z,13.79
2018-06-23T04:28:52.196Z,13.83
2018-06-23T04:29:52.163Z,13.83
2018-06-23T04:30:52.146Z,13.87
2018-06-23T04:31:52.112Z,14.00
2018-06-23T04:32:52.099Z,14.08
2018-06-23T04:33:52.092Z,14.05
2018-06-23T04:34:52.034Z,14.17
2018-06-23T04:35:52.016Z,14.17
2018-06-23T04:36:51.993Z,14.22
2018-06-23T04:37:51.958Z,14.17
2018-06-23T04:38:51.934Z,14.23
2018-06-23T04:39:51.917Z,14.22
2018-06-23T04:40:51.875Z,14.29
2018-06-23T04:41:51.861Z,14.25
2018-06-23T04:42:51.838Z,14.29
2018-06-23T04:43:51.803Z,14.30
2018-06-23T04:44:51.775Z,14.32
2018-06-23T04:45:51.754Z,14.32
2018-06-23T04:46:51.720Z,14.36
2018-06-23T04:47:51.696Z,14.40
2018-06-23T04:48:51.673Z,14.43
2018-06-23T04:49:51.647Z,14.54
2018-06-23T04:50:51.619Z,14.55
2018-06-23T04:51:51.595Z,14.59
2018-06-23T04:52:51.569Z,14.48
2018-06-23T04:53:51.544Z,14.55
2018-06-23T04:54:51.532Z,14.48
2018-06-23T04:55:51.500Z,14.45
2018-06-23T04:56:51.461Z,14.35
2018-06-23T04:57:51.458Z,14.53
2018-06-23T04:58:51.403Z,14.58
2018-06-23T04:59:51.399Z,14.60
2018-06-23T05:00:51.359Z,14.62
2018-06-23T05:01:51.330Z,14.68
2018-06-23T05:02:51.311Z,14.77
2018-06-23T05:03:51.279Z,14.72
2018-06-23T05:04:51.250Z,14.82
2018-06-23T05:05:51.227Z,14.82
2018-06-23T05:06:51.199Z,14.78
2018-06-23T05:07:51.173Z,14.88
2018-06-23T05:08:51.148Z,14.72
2018-06-23T05:09:51.121Z,14.88
2018-06-23T05:10:51.092Z,14.70
2018-06-23T05:11:51.071Z,14.78
2018-06-23T05:12:51.043Z,14.65
2018-06-23T05:13:51.030Z,14.60
2018-06-23T05:14:50.996Z,14.55
2018-06-23T05:15:50.962Z,14.65
2018-06-23T05:16:50.942Z,14.68
2018-06-23T05:17:50.910Z,14.68
2018-06-23T05:18:50.888Z,14.68
2018-06-23T05:19:50.867Z,14.66
2018-06-23T05:20:50.834Z,14.72
2018-06-23T05:21:50.810Z,14.77
2018-06-23T05:22:50.794Z,14.84
2018-06-23T05:23:50.753Z,14.77
2018-06-23T05:24:50.737Z,14.73
2018-06-23T05:25:50.728Z,14.68
2018-06-23T05:26:50.682Z,14.60
2018-06-23T05:27:50.659Z,14.59
2018-06-23T05:28:50.646Z,14.55
2018-06-23T05:29:50.605Z,14.58
2018-06-23T05:30:50.574Z,14.72
2018-06-23T05:31:50.551Z,14.85
2018-06-23T05:32:50.522Z,14.88
2018-06-23T05:33:50.493Z,14.85
2018-06-23T05:34:50.478Z,14.81
2018-06-23T05:35:50.441Z,14.81
2018-06-23T05:36:50.448Z,14.77
2018-06-23T05:37:50.427Z,14.78
2018-06-23T05:38:50.362Z,14.79
2018-06-23T05:39:50.345Z,14.73
2018-06-23T05:40:50.309Z,14.85
2018-06-23T05:41:50.292Z,14.89
2018-06-23T05:42:50.260Z,14.94
2018-06-23T05:43:50.239Z,15.00
2018-06-23T05:44:50.231Z,15.03
2018-06-23T05:45:50.180Z,14.97
2018-06-23T05:46:50.157Z,14.94
2018-06-23T05:47:50.131Z,15.02
2018-06-23T05:48:50.108Z,14.94
2018-06-23T05:49:50.085Z,14.77
2018-06-23T05:50:50.051Z,14.86
2018-06-23T05:51:50.027Z,14.85
2018-06-23T05:52:50.005Z,14.88
2018-06-23T05:53:49.975Z,14.82
2018-06-23T05:54:49.954Z,14.70
2018-06-23T05:55:49.926Z,14.85
2018-06-23T05:56:49.899Z,14.78
2018-06-23T05:57:49.867Z,14.89
2018-06-23T05:58:49.846Z,14.85
2018-06-23T05:59:49.834Z,14.79
2018-06-23T06:00:49.811Z,14.81
2018-06-23T06:01:49.772Z,14.68
2018-06-23T06:02:49.750Z,14.66
2018-06-23T06:03:49.721Z,14.62
2018-06-23T06:04:49.685Z,14.51
2018-06-23T06:05:49.661Z,14.58
2018-06-23T06:06:49.643Z,14.55
2018-06-23T06:07:49.612Z,14.68
2018-06-23T06:08:49.587Z,14.69
2018-06-23T06:09:49.567Z,14.69
2018-06-23T06:10:49.530Z,14.86
2018-06-23T06:11:49.621Z,14.77
2018-06-23T06:12:49.482Z,14.84
2018-06-23T06:13:49.461Z,14.78
2018-06-23T06:14:49.446Z,14.65
2018-06-23T06:15:49.401Z,14.68
2018-06-23T06:16:49.372Z,14.68
2018-06-23T06:17:49.352Z,14.81
2018-06-23T06:18:49.325Z,14.85
2018-06-23T06:19:49.302Z,14.78
2018-06-23T06:20:49.271Z,14.88
2018-06-23T06:21:49.246Z,14.85
2018-06-23T06:22:49.222Z,14.79
2018-06-23T06:23:49.217Z,14.84
2018-06-23T06:24:49.168Z,14.79
2018-06-23T06:25:49.144Z,14.69
2018-06-23T06:26:49.114Z,14.58
2018-06-23T06:27:49.087Z,14.50
2018-06-23T06:28:49.068Z,14.40
2018-06-23T06:29:49.036Z,14.45
2018-06-23T06:30:49.017Z,14.23
2018-06-23T06:31:48.989Z,14.20
2018-06-23T06:32:48.957Z,14.14
2018-06-23T06:33:48.936Z,13.99
2018-06-23T06:34:48.903Z,14.10
2018-06-23T06:35:48.882Z,14.14
2018-06-23T06:36:48.860Z,14.08
2018-06-23T06:37:48.833Z,14.17
2018-06-23T06:38:48.800Z,14.15
2018-06-23T06:39:48.778Z,14.04
2018-06-23T06:40:48.748Z,14.10
2018-06-23T06:41:48.721Z,14.18
2018-06-23T06:42:48.698Z,14.14
2018-06-23T06:43:48.669Z,14.17
2018-06-23T06:44:48.648Z,14.14
2018-06-23T06:45:48.633Z,14.15
2018-06-23T06:46:48.588Z,14.11
2018-06-23T06:47:48.569Z,14.12
2018-06-23T06:48:48.544Z,14.20
2018-06-23T06:49:48.510Z,14.35
2018-06-23T06:50:48.514Z,14.43
2018-06-23T06:51:48.462Z,14.45
2018-06-23T06:52:48.443Z,14.55
2018-06-23T06:53:48.415Z,14.58
2018-06-23T06:54:48.394Z,14.62
2018-06-23T06:55:48.363Z,14.54
2018-06-23T06:56:48.327Z,14.63
2018-06-23T06:57:48.301Z,14.73
2018-06-23T06:58:48.283Z,14.81
2018-06-23T06:59:48.252Z,14.77
2018-06-23T07:00:48.245Z,14.72
2018-06-23T07:01:48.203Z,14.69
2018-06-23T07:02:48.182Z,14.70
2018-06-23T07:03:48.152Z,14.88
2018-06-23T07:04:48.125Z,14.86
2018-06-23T07:05:48.102Z,14.96
2018-06-23T07:06:48.066Z,15.10
2018-06-23T07:07:48.042Z,15.10
2018-06-23T07:08:48.045Z,14.96
2018-06-23T07:09:47.993Z,14.91
2018-06-23T07:10:47.962Z,15.02
2018-06-23T07:11:47.936Z,15.07
2018-06-23T07:12:47.916Z,15.19
2018-06-23T07:13:47.885Z,15.25
2018-06-23T07:14:47.863Z,15.40
2018-06-23T07:15:47.842Z,15.54
2018-06-23T07:16:47.806Z,15.49
2018-06-23T07:17:47.786Z,15.51
2018-06-23T07:18:47.757Z,15.52
2018-06-23T07:19:47.737Z,15.62
2018-06-23T07:20:47.704Z,15.67
2018-06-23T07:21:47.711Z,15.65
2018-06-23T07:22:47.689Z,15.61
2018-06-23T07:23:47.793Z,15.62
2018-06-23T07:24:47.624Z,15.61
2018-06-23T07:25:47.606Z,15.61
2018-06-23T07:26:47.592Z,15.68
2018-06-23T07:27:47.527Z,15.82
2018-06-23T07:28:47.493Z,15.83
2018-06-23T07:29:47.473Z,15.82
2018-06-23T07:30:47.484Z,15.91
2018-06-23T07:31:47.430Z,15.84
2018-06-23T07:32:47.405Z,15.84
2018-06-23T07:33:47.369Z,15.94
2018-06-23T07:34:47.451Z,15.75
2018-06-23T07:35:47.319Z,15.83
2018-06-23T07:36:47.287Z,15.82
2018-06-23T07:37:47.262Z,15.83
2018-06-23T07:38:47.238Z,15.83
2018-06-23T07:39:47.211Z,15.75
2018-06-23T07:40:47.227Z,15.86
2018-06-23T07:41:47.160Z,15.72
2018-06-23T07:42:47.164Z,15.84
2018-06-23T07:43:47.110Z,15.86
2018-06-23T07:44:47.079Z,15.90
2018-06-23T07:45:47.054Z,15.94
2018-06-23T07:46:47.042Z,16.10
2018-06-23T07:47:47.003Z,16.04
2018-06-23T07:48:46.979Z,16.12
2018-06-23T07:49:46.960Z,16.20
2018-06-23T07:50:46.953Z,16.20
2018-06-23T07:51:46.900Z,16.23
2018-06-23T07:52:46.877Z,16.17
2018-06-23T07:53:46.850Z,16.32
2018-06-23T07:54:46.822Z,16.36
2018-06-23T07:55:46.801Z,16.38
2018-06-23T07:56:46.771Z,16.38
2018-06-23T07:57:46.751Z,16.47
2018-06-23T07:58:46.715Z,16.69
2018-06-23T07:59:46.698Z,16.72
2018-06-23T08:00:46.667Z,16.81
2018-06-23T08:01:46.648Z,16.86
2018-06-23T08:02:46.625Z,17.01
2018-06-23T08:03:46.591Z,17.16
2018-06-23T08:04:46.572Z,17.05
2018-06-23T08:05:46.541Z,17.16
2018-06-23T08:06:46.513Z,17.09
2018-06-23T08:07:46.492Z,17.02
2018-06-23T08:08:46.467Z,16.97
2018-06-23T08:09:46.436Z,17.06
2018-06-23T08:10:46.411Z,17.22
2018-06-23T08:11:46.454Z,17.19
2018-06-23T08:12:46.362Z,17.09
2018-06-23T08:13:46.336Z,17.02
2018-06-23T08:14:46.308Z,16.87
2018-06-23T08:15:46.295Z,16.87
2018-06-23T08:16:46.276Z,16.89
2018-06-23T08:17:46.237Z,16.96
2018-06-23T08:18:46.211Z,16.97
2018-06-23T08:19:46.190Z,16.94
2018-06-23T08:20:46.167Z,16.83
2018-06-23T08:21:46.129Z,16.65
2018-06-23T08:22:46.102Z,16.81
2018-06-23T08:23:46.085Z,16.69
2018-06-23T08:24:46.080Z,16.81
2018-06-23T08:25:46.026Z,16.83
2018-06-23T08:26:46.021Z,16.84
2018-06-23T08:27:45.973Z,16.91
2018-06-23T08:28:45.958Z,17.08
2018-06-23T08:29:45.933Z,17.11
2018-06-23T08:30:45.904Z,17.14
2018-06-23T08:31:45.892Z,17.14
2018-06-23T08:32:45.857Z,17.06
2018-06-23T08:33:45.830Z,17.12
2018-06-23T08:34:45.804Z,17.11
2018-06-23T08:35:45.779Z,17.12
2018-06-23T08:36:45.744Z,17.14
2018-06-23T08:37:45.753Z,17.14
2018-06-23T08:38:45.700Z,17.06
2018-06-23T08:39:45.670Z,17.12
2018-06-23T08:40:45.643Z,17.09
2018-06-23T08:41:45.624Z,16.93
2018-06-23T08:42:45.603Z,17.02
2018-06-23T08:43:45.603Z,16.97
2018-06-23T08:44:45.541Z,17.12
2018-06-23T08:45:45.521Z,17.01
2018-06-23T08:46:45.495Z,17.12
2018-06-23T08:47:45.472Z,17.12
2018-06-23T08:48:45.438Z,17.14
2018-06-23T08:49:45.418Z,17.19
2018-06-23T08:50:45.389Z,17.41
2018-06-23T08:51:45.363Z,17.54
2018-06-23T08:52:45.356Z,17.68
2018-06-23T08:53:45.316Z,17.80
2018-06-23T08:54:45.306Z,17.70
2018-06-23T08:55:45.261Z,17.67
2018-06-23T08:56:45.240Z,17.68
2018-06-23T08:57:45.213Z,17.51
2018-06-23T08:58:45.184Z,17.45
2018-06-23T08:59:45.166Z,17.44
2018-06-23T09:00:45.131Z,17.42
2018-06-23T09:01:45.113Z,17.44
2018-06-23T09:02:45.136Z,17.42
2018-06-23T09:03:45.068Z,17.42
2018-06-23T09:04:45.037Z,17.65
2018-06-23T09:05:45.014Z,17.65
2018-06-23T09:06:44.980Z,17.71
2018-06-23T09:07:44.956Z,17.71
2018-06-23T09:08:44.933Z,17.76
2018-06-23T09:09:44.914Z,17.74
2018-06-23T09:10:44.894Z,17.79
2018-06-23T09:11:44.859Z,17.86
2018-06-23T09:12:44.831Z,17.94
2018-06-23T09:13:44.806Z,18.01
2018-06-23T09:14:44.784Z,17.95
2018-06-23T09:15:44.751Z,17.97
2018-06-23T09:16:44.771Z,18.07
2018-06-23T09:17:44.702Z,18.07
2018-06-23T09:18:44.681Z,18.29
2018-06-23T09:19:44.719Z,18.25
2018-06-23T09:20:44.632Z,18.26
2018-06-23T09:21:44.607Z,18.29
2018-06-23T09:22:44.574Z,18.29
2018-06-23T09:23:44.557Z,18.31
2018-06-23T09:24:44.526Z,18.41
2018-06-23T09:25:44.534Z,18.45
2018-06-23T09:26:44.483Z,18.45
2018-06-23T09:27:44.453Z,18.53
2018-06-23T09:28:44.429Z,18.63
2018-06-23T09:29:44.405Z,18.66
2018-06-23T09:30:44.371Z,18.65
2018-06-23T09:31:44.350Z,18.58
2018-06-23T09:32:44.326Z,18.44
2018-06-23T09:33:44.299Z,18.52
2018-06-23T09:34:44.274Z,18.49
2018-06-23T09:35:44.254Z,18.59
2018-06-23T09:36:44.228Z,18.75
2018-06-23T09:37:44.206Z,18.81
2018-06-23T09:38:44.169Z,18.86
2018-06-23T09:39:44.147Z,19.00
2018-06-23T09:40:44.123Z,18.92
2018-06-23T09:41:44.099Z,19.09
2018-06-23T09:42:44.073Z,19.16
2018-06-23T09:43:44.053Z,19.15
2018-06-23T09:44:44.313Z,19.02
2018-06-23T09:45:44.037Z,19.16
2018-06-23T09:46:43.990Z,19.14
2018-06-23T09:47:43.943Z,19.09
2018-06-23T09:48:43.921Z,18.96
2018-06-23T09:49:43.904Z,18.88
2018-06-23T09:50:43.872Z,18.83
2018-06-23T09:51:43.853Z,18.78
2018-06-23T09:52:43.818Z,18.81
2018-06-23T09:53:43.799Z,18.83
2018-06-23T09:54:43.776Z,18.92
2018-06-23T09:55:43.800Z,18.83
2018-06-23T09:56:43.734Z,19.02
2018-06-23T09:57:43.694Z,18.95
2018-06-23T09:58:43.673Z,19.09
2018-06-23T09:59:43.651Z,18.95
2018-06-23T10:00:43.622Z,18.81
2018-06-23T10:01:43.602Z,18.95
2018-06-23T10:02:43.570Z,18.77
2018-06-23T10:03:43.547Z,18.83
2018-06-23T10:04:43.518Z,18.96
2018-06-23T10:05:43.503Z,18.84
2018-06-23T10:06:43.619Z,18.93
2018-06-23T10:07:43.444Z,19.00
2018-06-23T10:08:43.426Z,18.88
2018-06-23T10:09:43.401Z,18.75
2018-06-23T10:10:43.372Z,18.78
2018-06-23T10:11:43.352Z,18.83
2018-06-23T10:12:43.324Z,18.77
2018-06-23T10:13:43.340Z,18.55
2018-06-23T10:14:43.270Z,18.41
2018-06-23T10:15:43.248Z,18.43
2018-06-23T10:16:43.220Z,18.40
2018-06-23T10:17:43.199Z,18.31
2018-06-23T10:18:43.200Z,18.37
2018-06-23T10:19:43.144Z,18.29
2018-06-23T10:20:43.128Z,18.26
2018-06-23T10:21:43.095Z,18.25
2018-06-23T10:22:43.096Z,18.31
2018-06-23T10:23:43.043Z,18.38
2018-06-23T10:24:43.024Z,18.47
2018-06-23T10:25:42.995Z,18.41
2018-06-23T10:26:42.975Z,18.33
2018-06-23T10:27:42.943Z,18.44
2018-06-23T10:28:42.936Z,18.52
2018-06-23T10:29:42.890Z,18.62
2018-06-23T10:30:42.877Z,18.77
2018-06-23T10:31:42.844Z,18.83
2018-06-23T10:32:42.823Z,18.89
2018-06-23T10:33:42.796Z,18.96
2018-06-23T10:34:42.767Z,18.88
2018-06-23T10:35:42.745Z,18.88
2018-06-23T10:36:42.724Z,18.83
2018-06-23T10:37:42.692Z,18.81
2018-06-23T10:38:42.676Z,18.86
2018-06-23T10:39:42.649Z,19.09
2018-06-23T10:40:42.627Z,19.14
2018-06-23T10:41:42.600Z,19.21
2018-06-23T10:42:42.568Z,19.34
2018-06-23T10:43:42.545Z,19.33
2018-06-23T10:44:42.525Z,19.26
2018-06-23T10:45:42.494Z,19.30
2018-06-23T10:46:42.487Z,19.21
2018-06-23T10:47:42.444Z,19.27
2018-06-23T10:48:42.423Z,19.27
2018-06-23T10:49:42.398Z,19.29
2018-06-23T10:50:42.370Z,19.07
2018-06-23T10:51:42.349Z,18.84
2018-06-23T10:52:42.319Z,18.81
2018-06-23T10:53:42.302Z,18.83
2018-06-23T10:54:42.268Z,18.93
2018-06-23T10:55:42.263Z,18.92
2018-06-23T10:56:42.221Z,19.04
2018-06-23T10:57:42.206Z,18.93
2018-06-23T10:58:42.178Z,18.78
2018-06-23T10:59:42.144Z,18.89
2018-06-23T11:00:42.128Z,18.95
2018-06-23T11:01:42.097Z,18.88
2018-06-23T11:02:42.078Z,18.86
2018-06-23T11:03:42.047Z,18.93
2018-06-23T11:04:42.096Z,18.92
2018-06-23T11:05:42.008Z,19.00
2018-06-23T11:06:41.969Z,19.11
2018-06-23T11:07:41.954Z,19.30
2018-06-23T11:08:41.926Z,19.30
2018-06-23T11:09:41.893Z,19.34
2018-06-23T11:10:41.881Z,19.29
2018-06-23T11:11:41.846Z,19.39
2018-06-23T11:12:41.830Z,19.37
2018-06-23T11:13:41.807Z,19.47
2018-06-23T11:14:41.773Z,19.37
2018-06-23T11:15:41.755Z,19.40
2018-06-23T11:16:41.723Z,19.52
2018-06-23T11:17:41.706Z,19.51
2018-06-23T11:18:41.678Z,19.51
2018-06-23T11:19:41.651Z,19.44
2018-06-23T11:20:41.623Z,19.36
2018-06-23T11:21:41.601Z,19.41
2018-06-23T11:22:41.582Z,19.30
2018-06-23T11:23:41.552Z,19.40
2018-06-23T11:24:41.533Z,19.37
2018-06-23T11:25:41.502Z,19.33
2018-06-23T11:26:41.481Z,19.41
2018-06-23T11:27:41.458Z,19.58
2018-06-23T11:28:41.428Z,19.52
2018-06-23T11:29:41.406Z,19.63
2018-06-23T11:30:41.378Z,19.45
2018-06-23T11:31:41.352Z,19.41
2018-06-23T11:32:41.335Z,19.33
2018-06-23T11:33:41.308Z,19.39
2018-06-23T11:34:41.285Z,19.21
2018-06-23T11:35:41.252Z,19.11
2018-06-23T11:36:41.234Z,19.15
2018-06-23T11:37:41.206Z,19.09
2018-06-23T11:38:41.182Z,19.11
2018-06-23T11:39:41.158Z,19.18
2018-06-23T11:40:41.134Z,19.24
2018-06-23T11:41:41.111Z,19.27
2018-06-23T11:42:41.080Z,19.37
2018-06-23T11:43:41.060Z,19.39
2018-06-23T11:44:41.032Z,19.45
2018-06-23T11:45:41.013Z,19.52
2018-06-23T11:46:41.042Z,19.62
2018-06-23T11:47:40.961Z,19.41
2018-06-23T11:48:40.937Z,19.56
2018-06-23T11:49:40.910Z,19.52
2018-06-23T11:50:40.886Z,19.64
2018-06-23T11:51:40.876Z,19.79
2018-06-23T11:52:40.850Z,19.92
2018-06-23T11:53:40.822Z,20.18
2018-06-23T11:54:40.783Z,20.37
2018-06-23T11:55:40.756Z,20.44
2018-06-23T11:56:40.742Z,20.59
2018-06-23T11:57:40.764Z,20.70
2018-06-23T11:58:40.689Z,20.78
2018-06-23T11:59:40.671Z,20.63
2018-06-23T12:00:40.643Z,20.66
2018-06-23T12:01:40.617Z,20.65
2018-06-23T12:02:40.600Z,20.59
2018-06-23T12:03:40.604Z,20.36
2018-06-23T12:04:40.545Z,20.26
2018-06-23T12:05:40.517Z,20.28
2018-06-23T12:06:40.490Z,20.24
2018-06-23T12:07:40.469Z,20.25
2018-06-23T12:08:40.440Z,20.21
2018-06-23T12:09:40.417Z,20.02
2018-06-23T12:10:40.395Z,20.02
2018-06-23T12:11:40.368Z,19.89
2018-06-23T12:12:40.349Z,19.71
2018-06-23T12:13:40.322Z,19.64
2018-06-23T12:14:40.297Z,19.58
2018-06-23T12:15:40.269Z,19.40
2018-06-23T12:16:40.261Z,19.33
2018-06-23T12:17:40.227Z,19.37
2018-06-23T12:18:40.195Z,19.40
2018-06-23T12:19:40.179Z,19.30
2018-06-23T12:20:40.149Z,19.33
2018-06-23T12:21:40.131Z,19.26
2018-06-23T12:22:40.102Z,19.22
2018-06-23T12:23:40.078Z,19.19
2018-06-23T12:24:40.047Z,19.02
2018-06-23T12:25:40.031Z,19.07
2018-06-23T12:26:40.016Z,18.99
2018-06-23T12:27:39.973Z,18.99
2018-06-23T12:28:39.959Z,19.11
2018-06-23T12:29:39.932Z,18.98
2018-06-23T12:30:39.903Z,19.14
2018-06-23T12:31:39.882Z,19.24
2018-06-23T12:32:39.851Z,19.19
2018-06-23T12:33:39.831Z,19.31
2018-06-23T12:34:39.861Z,19.30
2018-06-23T12:35:39.775Z,19.33
2018-06-23T12:36:39.757Z,19.44
2018-06-23T12:37:39.732Z,19.36
2018-06-23T12:38:39.704Z,19.41
2018-06-23T12:39:39.680Z,19.40
2018-06-23T12:40:39.658Z,19.39
2018-06-23T12:41:39.752Z,19.45
2018-06-23T12:42:39.608Z,19.58
2018-06-23T12:43:39.585Z,19.86
2018-06-23T12:44:39.554Z,19.96
2018-06-23T12:45:39.529Z,20.21
2018-06-23T12:46:39.577Z,20.25
2018-06-23T12:47:39.485Z,20.36
2018-06-23T12:48:39.455Z,20.50
2018-06-23T12:49:39.436Z,20.66
2018-06-23T12:50:39.414Z,20.75
2018-06-23T12:51:39.385Z,20.66
2018-06-23T12:52:39.362Z,20.75
2018-06-23T12:53:39.353Z,20.78